Time;durP1;ratioP1;P1;durP2;ratioP2;P2;SDS_P1;SDS_P2;PMS_P1;PMS_P2;Temp;Humidity;BMP_temperature;BMP_pressure;BME280_temperature;BME280_humidity;BME280_pressure;Samples;Min_cycle;Max_cycle;Signal;HPM_P1;HPM_P2
2021/04/06 00:02:20;;;;;;;7.37;2.13;;;13.50;99.90;;;;;;5035641;27;20203;-69
2021/04/06 00:04:51;;;;;;;8.70;2.13;;;13.40;99.90;;;;;;5044284;27;20189;-69
2021/04/06 00:07:20;;;;;;;10.63;2.00;;;13.30;99.90;;;;;;5036775;27;20223;-69
2021/04/06 00:10:00;;;;;;;10.37;2.73;;;13.30;99.90;;;;;;5034649;27;20632;-69
2021/04/06 00:12:28;;;;;;;9.23;2.43;;;13.20;99.90;;;;;;5057681;27;20195;-69
2021/04/06 00:14:59;;;;;;;6.87;2.50;;;13.10;99.90;;;;;;5034306;27;20188;-68
2021/04/06 00:17:27;;;;;;;16.70;2.30;;;13.00;99.90;;;;;;5059266;27;20180;-68
2021/04/06 00:19:58;;;;;;;8.93;2.50;;;13.00;99.90;;;;;;5045891;27;20185;-68
2021/04/06 00:22:32;;;;;;;13.90;2.50;;;13.00;99.90;;;;;;5028870;27;20247;-68
2021/04/06 00:25:01;;;;;;;7.70;2.40;;;13.10;99.90;;;;;;5019440;27;20181;-69
2021/04/06 00:27:37;;;;;;;12.73;2.90;;;13.00;99.90;;;;;;5037517;27;20267;-68
2021/04/06 00:30:14;;;;;;;12.90;2.60;;;13.00;99.90;;;;;;5017672;28;20192;-68
2021/04/06 00:32:42;;;;;;;9.90;2.17;;;13.00;99.90;;;;;;5037745;27;20185;-67
2021/04/06 00:35:11;;;;;;;10.90;2.67;;;13.00;99.90;;;;;;5025942;27;20226;-67
2021/04/06 00:37:48;;;;;;;11.30;2.47;;;13.00;99.90;;;;;;5038384;27;20200;-68
2021/04/06 00:40:17;;;;;;;15.00;2.33;;;13.10;99.90;;;;;;5047250;27;20783;-67
2021/04/06 00:42:44;;;;;;;9.03;2.40;;;13.20;99.90;;;;;;5058901;27;20245;-68
2021/04/06 00:45:17;;;;;;;6.67;2.27;;;13.20;99.90;;;;;;5030445;28;20192;-68
2021/04/06 00:47:44;;;;;;;7.47;2.30;;;13.20;99.90;;;;;;5026218;28;20189;-68
2021/04/06 00:50:16;;;;;;;7.90;2.30;;;13.10;99.90;;;;;;5040731;27;20200;-68
2021/04/06 00:52:45;;;;;;;8.07;2.20;;;13.10;99.90;;;;;;5015885;27;20747;-68
2021/04/06 00:55:17;;;;;;;5.33;2.00;;;13.10;99.90;;;;;;5032038;27;20786;-68
2021/04/06 00:57:44;;;;;;;7.50;2.00;;;13.00;99.90;;;;;;5020782;28;20193;-68
2021/04/06 01:00:26;;;;;;;13.13;2.40;;;13.00;99.90;;;;;;5015017;28;20191;-68
2021/04/06 01:03:10;;;;;;;7.60;2.43;;;12.90;99.90;;;;;;5044519;27;20664;-69
2021/04/06 01:05:59;;;;;;;6.90;2.33;;;12.90;99.90;;;;;;5041595;27;20265;-68
2021/04/06 01:08:32;;;;;;;6.93;2.40;;;12.80;99.90;;;;;;5021007;27;20192;-68
2021/04/06 01:11:00;;;;;;;9.93;2.30;;;12.80;99.90;;;;;;5065396;27;20180;-69
2021/04/06 01:13:27;;;;;;;7.00;2.57;;;12.70;99.90;;;;;;5061999;27;20188;-68
2021/04/06 01:15:55;;;;;;;9.57;3.00;;;12.60;99.90;;;;;;5042757;27;20192;-69
2021/04/06 01:18:23;;;;;;;16.53;2.60;;;12.50;99.90;;;;;;5029672;27;20241;-68
2021/04/06 01:20:54;;;;;;;7.07;2.50;;;12.30;99.90;;;;;;5055373;27;20183;-68
2021/04/06 01:23:21;;;;;;;12.17;2.70;;;12.30;99.90;;;;;;5066242;27;21019;-68
2021/04/06 01:25:57;;;;;;;6.83;2.10;;;12.30;99.90;;;;;;5020250;27;20195;-66
2021/04/06 01:28:33;;;;;;;7.67;2.97;;;12.20;99.90;;;;;;5023383;27;20195;-67
2021/04/06 01:31:02;;;;;;;5.53;2.20;;;12.20;99.90;;;;;;5043893;27;20184;-67
2021/04/06 01:33:31;;;;;;;11.60;2.80;;;12.10;99.90;;;;;;5024422;27;20205;-65
2021/04/06 01:36:07;;;;;;;10.53;2.67;;;12.20;99.90;;;;;;5007374;28;20238;-67
2021/04/06 01:38:39;;;;;;;6.17;2.63;;;12.20;99.90;;;;;;5025343;27;20295;-66
2021/04/06 01:41:05;;;;;;;7.57;2.83;;;12.20;99.90;;;;;;5035177;27;20244;-67
2021/04/06 01:43:33;;;;;;;6.73;2.63;;;12.20;99.90;;;;;;5055590;27;20231;-66
2021/04/06 01:46:16;;;;;;;7.73;2.60;;;12.30;99.90;;;;;;5068577;27;20181;-68
2021/04/06 01:48:44;;;;;;;9.27;3.03;;;12.20;99.90;;;;;;5058017;27;20325;-67
2021/04/06 01:51:13;;;;;;;6.70;3.13;;;12.20;99.90;;;;;;5041375;27;20329;-66
2021/04/06 01:53:43;;;;;;;10.47;3.17;;;12.20;99.90;;;;;;5018869;27;20188;-69
2021/04/06 01:56:13;;;;;;;8.63;2.67;;;12.20;99.90;;;;;;5012600;27;20652;-68
2021/04/06 01:58:46;;;;;;;8.60;2.43;;;12.20;99.90;;;;;;5022018;27;20268;-64
2021/04/06 02:01:19;;;;;;;7.63;2.60;;;12.30;99.90;;;;;;5041326;27;20206;-67
2021/04/06 02:03:52;;;;;;;7.40;2.37;;;12.30;99.90;;;;;;5066435;27;20635;-69
2021/04/06 02:06:19;;;;;;;12.60;2.57;;;12.30;99.90;;;;;;5048448;27;20184;-70
2021/04/06 02:08:51;;;;;;;15.07;3.10;;;12.40;99.90;;;;;;5055841;27;20258;-70
2021/04/06 02:11:31;;;;;;;8.30;2.30;;;12.40;99.90;;;;;;5062478;27;20185;-69
2021/04/06 02:14:17;;;;;;;8.17;2.13;;;12.40;99.90;;;;;;5059338;27;20185;-67
2021/04/06 02:16:54;;;;;;;5.60;2.27;;;12.30;99.90;;;;;;5028210;27;20199;-68
2021/04/06 02:19:37;;;;;;;8.17;2.93;;;12.30;99.90;;;;;;5021742;28;20191;-67
2021/04/06 02:22:13;;;;;;;13.37;2.73;;;12.30;99.90;;;;;;5101391;27;20288;-68
2021/04/06 02:24:50;;;;;;;6.50;2.63;;;12.30;99.90;;;;;;5040542;27;20194;-68
2021/04/06 02:27:30;;;;;;;9.97;2.20;;;12.30;99.90;;;;;;5018362;27;20222;-69
2021/04/06 02:30:08;;;;;;;11.27;2.50;;;12.40;99.90;;;;;;5028027;27;20199;-67
2021/04/06 02:32:35;;;;;;;7.20;2.03;;;12.40;99.90;;;;;;5040128;27;20231;-68
2021/04/06 02:35:10;;;;;;;14.50;2.23;;;12.30;99.90;;;;;;5018148;27;20742;-67
2021/04/06 02:37:42;;;;;;;11.50;2.30;;;12.50;99.90;;;;;;5030430;27;20233;-67
2021/04/06 02:40:12;;;;;;;6.87;2.30;;;12.60;99.90;;;;;;5051457;27;20230;-67
2021/04/06 02:42:49;;;;;;;9.27;2.60;;;12.80;99.90;;;;;;5060669;27;20223;-67
2021/04/06 02:45:20;;;;;;;6.77;2.07;;;12.80;99.90;;;;;;5066737;27;20249;-67
2021/04/06 02:48:06;;;;;;;12.40;2.60;;;12.80;99.90;;;;;;5026810;27;20199;-67
2021/04/06 02:50:35;;;;;;;8.53;2.20;;;12.80;99.90;;;;;;5053797;27;20206;-68
2021/04/06 02:53:10;;;;;;;7.37;2.40;;;12.90;99.90;;;;;;5040591;28;20184;-67
2021/04/06 02:55:38;;;;;;;16.97;2.83;;;12.90;99.90;;;;;;5040424;27;20195;-68
2021/04/06 02:58:15;;;;;;;12.93;2.50;;;13.00;99.90;;;;;;5029066;27;20205;-68
2021/04/06 03:00:42;;;;;;;12.63;2.53;;;13.00;99.90;;;;;;5033136;27;20240;-68
2021/04/06 03:03:22;;;;;;;7.83;2.07;;;13.00;99.90;;;;;;5098668;27;20599;-68
2021/04/06 03:06:00;;;;;;;6.43;2.30;;;12.90;99.90;;;;;;5034864;27;20266;-69
2021/04/06 03:08:31;;;;;;;5.53;2.20;;;12.80;99.90;;;;;;5048167;27;20271;-69
2021/04/06 03:10:58;;;;;;;10.27;2.47;;;12.70;99.90;;;;;;5045938;27;20185;-69
2021/04/06 03:13:26;;;;;;;11.97;2.20;;;12.60;99.90;;;;;;5041963;27;20198;-69
2021/04/06 03:15:54;;;;;;;17.40;2.60;;;12.60;99.90;;;;;;5040658;27;20269;-69
2021/04/06 03:18:35;;;;;;;9.90;2.63;;;12.50;99.90;;;;;;5050443;27;20192;-69
2021/04/06 03:21:12;;;;;;;6.13;2.10;;;12.60;99.90;;;;;;5017270;28;20195;-69
2021/04/06 03:23:39;;;;;;;7.13;2.40;;;12.50;99.90;;;;;;5053590;28;20212;-69
2021/04/06 03:26:08;;;;;;;15.07;2.10;;;12.30;99.90;;;;;;5050441;27;20235;-69
2021/04/06 03:28:39;;;;;;;13.17;2.43;;;12.10;99.90;;;;;;5013654;28;20433;-69
2021/04/06 03:31:18;;;;;;;10.20;2.83;;;11.90;99.90;;;;;;5034716;28;20180;-69
2021/04/06 03:33:48;;;;;;;9.87;2.30;;;11.80;99.90;;;;;;5037481;27;20209;-68
2021/04/06 03:36:24;;;;;;;11.97;2.30;;;11.90;99.90;;;;;;5052921;28;20397;-69
2021/04/06 03:38:54;;;;;;;16.40;2.50;;;11.90;99.90;;;;;;5014365;28;20196;-69
2021/04/06 03:41:27;;;;;;;10.20;2.20;;;11.90;99.90;;;;;;5030759;27;20212;-69
2021/04/06 03:44:12;;;;;;;8.43;2.47;;;11.80;99.90;;;;;;5014559;28;20221;-68
2021/04/06 03:46:41;;;;;;;10.33;2.57;;;12.00;99.90;;;;;;5014716;28;20280;-68
2021/04/06 03:49:23;;;;;;;8.40;2.60;;;12.10;99.90;;;;;;5032769;28;20220;-68
2021/04/06 03:52:10;;;;;;;10.73;2.83;;;12.30;99.90;;;;;;5018486;28;20311;-68
2021/04/06 03:54:48;;;;;;;12.10;2.90;;;12.40;99.90;;;;;;5051104;28;20203;-68
2021/04/06 03:57:23;;;;;;;14.63;2.40;;;12.50;99.90;;;;;;5042982;28;20194;-68
2021/04/06 03:59:50;;;;;;;7.63;2.07;;;12.50;99.90;;;;;;5019253;28;20219;-69
2021/04/06 04:02:17;;;;;;;12.37;2.77;;;12.50;99.90;;;;;;5014290;28;20273;-69
2021/04/06 04:04:43;;;;;;;13.07;2.37;;;12.50;99.90;;;;;;5025531;28;20184;-68
2021/04/06 04:07:10;;;;;;;9.47;2.33;;;12.40;99.90;;;;;;5017876;28;21315;-69
2021/04/06 04:09:36;;;;;;;5.57;2.33;;;12.40;99.90;;;;;;5014535;28;20193;-69
2021/04/06 04:12:03;;;;;;;10.47;2.57;;;12.40;99.90;;;;;;5015802;28;20279;-69
2021/04/06 04:14:30;;;;;;;13.00;2.27;;;12.40;99.90;;;;;;5050214;28;21080;-69
2021/04/06 04:16:56;;;;;;;4.67;2.40;;;12.30;99.90;;;;;;5038835;28;20188;-68
2021/04/06 04:19:22;;;;;;;8.60;2.10;;;12.30;99.90;;;;;;5050000;28;20204;-68
2021/04/06 04:21:49;;;;;;;7.70;2.30;;;12.30;99.90;;;;;;5051895;28;20275;-69
2021/04/06 04:24:15;;;;;;;10.37;3.10;;;12.40;99.90;;;;;;5060596;28;20216;-68
2021/04/06 04:26:42;;;;;;;13.00;2.50;;;12.50;99.90;;;;;;5055483;28;20211;-68
2021/04/06 04:29:08;;;;;;;8.07;2.50;;;12.60;99.90;;;;;;5036853;28;20192;-68
2021/04/06 04:31:34;;;;;;;17.90;3.00;;;12.70;99.90;;;;;;5016491;28;20204;-68
2021/04/06 04:34:01;;;;;;;12.93;2.63;;;12.80;99.90;;;;;;5040105;28;20581;-69
2021/04/06 04:36:27;;;;;;;12.47;2.40;;;13.00;99.90;;;;;;5112143;28;20632;-69
2021/04/06 04:38:53;;;;;;;11.23;2.40;;;13.10;99.90;;;;;;5041561;28;20228;-68
2021/04/06 04:41:20;;;;;;;8.50;2.43;;;13.20;99.90;;;;;;5055266;27;20216;-69
2021/04/06 04:43:47;;;;;;;6.70;2.47;;;13.10;99.90;;;;;;5068655;27;20216;-70
2021/04/06 04:46:13;;;;;;;12.83;2.47;;;13.20;99.90;;;;;;5032810;27;20674;-68
2021/04/06 04:48:39;;;;;;;9.53;2.77;;;13.20;99.90;;;;;;5031673;27;20185;-70
2021/04/06 04:51:06;;;;;;;7.87;2.67;;;13.30;99.90;;;;;;5058927;27;20215;-69
2021/04/06 04:53:32;;;;;;;8.67;2.50;;;13.40;99.90;;;;;;5031593;27;20284;-69
2021/04/06 04:55:58;;;;;;;11.17;2.93;;;13.40;99.90;;;;;;5067110;27;20924;-69
2021/04/06 04:58:25;;;;;;;12.80;2.73;;;13.50;99.90;;;;;;5056102;27;20227;-69
2021/04/06 05:00:51;;;;;;;7.50;2.60;;;13.50;99.90;;;;;;5021606;27;20732;-69
2021/04/06 05:03:17;;;;;;;11.43;2.53;;;13.60;99.90;;;;;;5040574;27;20216;-69
2021/04/06 05:05:43;;;;;;;10.40;3.07;;;13.80;99.90;;;;;;5029857;27;20184;-68
2021/04/06 05:08:09;;;;;;;5.80;2.67;;;14.00;99.90;;;;;;5030297;27;20577;-69
2021/04/06 05:10:35;;;;;;;13.77;2.83;;;14.00;99.90;;;;;;5016591;28;20184;-69
2021/04/06 05:13:02;;;;;;;9.10;2.70;;;14.20;99.90;;;;;;5104963;27;20211;-68
2021/04/06 05:15:30;;;;;;;6.90;2.73;;;14.30;99.90;;;;;;5026910;28;20195;-68
2021/04/06 05:17:57;;;;;;;16.50;3.03;;;14.30;99.90;;;;;;5019301;28;20200;-68
2021/04/06 05:20:23;;;;;;;7.70;2.67;;;14.50;99.90;;;;;;5031731;27;20211;-68
2021/04/06 05:22:50;;;;;;;9.47;2.80;;;14.60;99.90;;;;;;5064318;27;20224;-68
2021/04/06 05:25:17;;;;;;;9.53;2.93;;;14.70;99.90;;;;;;5013937;27;20195;-67
2021/04/06 05:27:44;;;;;;;16.20;3.40;;;14.70;99.90;;;;;;5038141;27;21121;-69
2021/04/06 05:30:11;;;;;;;11.83;3.60;;;14.70;99.90;;;;;;5017558;27;20189;-69
2021/04/06 05:32:38;;;;;;;5.20;2.90;;;14.70;99.90;;;;;;5029063;28;20185;-69
2021/04/06 05:35:05;;;;;;;12.67;3.10;;;14.70;99.90;;;;;;5008246;27;20223;-69
2021/04/06 05:37:32;;;;;;;9.77;3.00;;;14.90;99.90;;;;;;5059146;27;20545;-68
2021/04/06 05:39:58;;;;;;;8.50;3.20;;;15.00;99.90;;;;;;5040271;27;20212;-66
2021/04/06 05:42:24;;;;;;;7.87;3.00;;;15.10;99.90;;;;;;5009522;27;20197;-66
2021/04/06 05:44:51;;;;;;;9.00;3.40;;;15.30;99.90;;;;;;5025818;28;20249;-67
2021/04/06 05:47:49;;;;;;;9.37;3.27;;;15.30;99.90;;;;;;5052914;27;20572;-68
2021/04/06 05:50:23;;;;;;;7.90;2.77;;;15.50;99.90;;;;;;5041255;27;20205;-69
2021/04/06 05:52:51;;;;;;;11.80;3.30;;;15.50;99.90;;;;;;5043827;27;20192;-69
2021/04/06 05:55:35;;;;;;;9.07;3.23;;;15.40;99.90;;;;;;5018917;28;20700;-68
2021/04/06 05:58:13;;;;;;;11.07;3.50;;;15.50;99.90;;;;;;5023282;27;20275;-69
2021/04/06 06:00:53;;;;;;;11.33;3.20;;;15.50;99.90;;;;;;5056181;27;20272;-70
2021/04/06 06:03:20;;;;;;;8.33;2.87;;;15.40;99.90;;;;;;5026677;27;20216;-69
2021/04/06 06:05:46;;;;;;;13.67;3.83;;;15.50;99.90;;;;;;5055283;27;20199;-69
2021/04/06 06:08:14;;;;;;;12.60;3.07;;;15.60;99.90;;;;;;5023333;27;20188;-65
2021/04/06 06:10:41;;;;;;;10.50;3.07;;;15.70;99.90;;;;;;5034771;27;20207;-66
2021/04/06 06:13:29;;;;;;;8.97;3.00;;;15.80;99.90;;;;;;5030222;27;20201;-69
2021/04/06 06:16:21;;;;;;;20.20;3.17;;;15.90;99.90;;;;;;5053523;27;20862;-69
2021/04/06 06:19:11;;;;;;;15.60;2.97;;;16.00;99.90;;;;;;5026577;28;20220;-68
2021/04/06 06:21:53;;;;;;;13.20;2.83;;;16.00;99.90;;;;;;5035583;27;20266;-68
2021/04/06 06:24:35;;;;;;;14.60;3.07;;;16.10;99.90;;;;;;5027002;27;20725;-69
2021/04/06 06:27:02;;;;;;;10.60;3.10;;;16.10;99.90;;;;;;5020694;27;20311;-70
2021/04/06 06:29:31;;;;;;;13.00;2.83;;;16.20;99.90;;;;;;5059284;27;20641;-69
2021/04/06 06:31:59;;;;;;;9.30;2.80;;;16.20;99.90;;;;;;5030815;27;20541;-70
2021/04/06 06:34:29;;;;;;;11.80;2.60;;;16.20;99.90;;;;;;5028263;27;20196;-69
2021/04/06 06:37:09;;;;;;;15.30;3.00;;;16.20;99.90;;;;;;5066883;27;20212;-69
2021/04/06 06:39:48;;;;;;;21.83;3.30;;;16.30;99.90;;;;;;5031602;27;20187;-70
2021/04/06 06:42:19;;;;;;;13.10;2.93;;;16.20;99.90;;;;;;5105429;27;20204;-69
2021/04/06 06:44:46;;;;;;;13.00;3.40;;;16.30;99.90;;;;;;5024640;28;20862;-69
2021/04/06 06:47:26;;;;;;;13.10;3.77;;;16.40;99.90;;;;;;5049245;27;20861;-69
2021/04/06 06:49:55;;;;;;;23.83;3.37;;;16.50;99.90;;;;;;5054415;27;20219;-69
2021/04/06 06:52:26;;;;;;;26.97;3.40;;;16.80;99.90;;;;;;5057219;27;20230;-69
2021/04/06 06:55:02;;;;;;;20.13;3.53;;;16.80;99.90;;;;;;5038536;27;20261;-68
2021/04/06 06:57:34;;;;;;;17.47;4.03;;;16.90;99.90;;;;;;5041414;27;20513;-69
2021/04/06 07:00:17;;;;;;;18.87;3.50;;;16.90;99.90;;;;;;5039778;27;20271;-68
2021/04/06 07:02:44;;;;;;;25.97;4.57;;;17.00;99.90;;;;;;5052889;27;20218;-70
2021/04/06 07:05:21;;;;;;;26.40;4.00;;;17.00;99.90;;;;;;5023333;27;20199;-70
2021/04/06 07:08:05;;;;;;;20.47;4.70;;;17.10;99.90;;;;;;5089802;27;20291;-68
2021/04/06 07:10:43;;;;;;;23.53;3.70;;;17.10;99.90;;;;;;5022896;27;20188;-68
2021/04/06 07:13:20;;;;;;;21.13;3.77;;;17.10;99.90;;;;;;5058001;27;20205;-71
2021/04/06 07:15:49;;;;;;;19.10;3.37;;;17.40;99.90;;;;;;5045511;27;20191;-71
2021/04/06 07:18:18;;;;;;;17.20;3.33;;;17.40;99.90;;;;;;5043437;27;20222;-71
2021/04/06 07:20:55;;;;;;;21.80;3.73;;;17.50;99.90;;;;;;5025429;27;20203;-71
2021/04/06 07:23:37;;;;;;;20.53;3.87;;;17.50;99.90;;;;;;5041255;27;20317;-72
2021/04/06 07:26:10;;;;;;;26.60;3.63;;;17.50;99.90;;;;;;5038818;27;20276;-68
2021/04/06 07:28:39;;;;;;;16.43;3.17;;;17.60;99.90;;;;;;5053357;27;20195;-67
2021/04/06 07:31:07;;;;;;;13.97;3.80;;;17.60;99.90;;;;;;5048249;28;20204;-69
2021/04/06 07:33:34;;;;;;;19.03;3.83;;;17.90;99.90;;;;;;5031028;27;20274;-69
2021/04/06 07:36:07;;;;;;;16.40;3.63;;;17.90;99.90;;;;;;5028557;28;20260;-69
2021/04/06 07:38:41;;;;;;;17.13;3.50;;;18.10;99.90;;;;;;5079623;28;20189;-67
2021/04/06 07:41:08;;;;;;;16.63;3.33;;;18.30;99.90;;;;;;5013472;28;20215;-67
2021/04/06 07:43:35;;;;;;;21.40;3.40;;;18.30;99.90;;;;;;5036328;27;20231;-67
2021/04/06 07:46:02;;;;;;;13.30;3.20;;;18.30;99.90;;;;;;5024483;28;20185;-66
2021/04/06 07:48:50;;;;;;;23.97;4.10;;;18.30;99.90;;;;;;5015627;28;20330;-67
2021/04/06 07:51:25;;;;;;;18.73;3.67;;;18.30;99.90;;;;;;5002967;28;20287;-69
2021/04/06 07:54:11;;;;;;;21.97;4.00;;;18.70;99.90;;;;;;5019708;28;20846;-67
2021/04/06 07:56:44;;;;;;;9.33;3.03;;;18.90;99.90;;;;;;5024744;28;20215;-67
2021/04/06 07:59:19;;;;;;;16.10;4.00;;;19.10;99.90;;;;;;5103739;27;20203;-67
2021/04/06 08:01:52;;;;;;;14.20;3.70;;;19.40;99.90;;;;;;5028642;28;20192;-67
2021/04/06 08:04:48;;;;;;;16.10;3.93;;;19.40;99.90;;;;;;5017512;28;20220;-67
2021/04/06 08:07:20;;;;;;;23.77;4.30;;;19.60;99.90;;;;;;5016631;28;20180;-67
2021/04/06 08:10:00;;;;;;;16.00;4.67;;;19.80;99.90;;;;;;5027505;28;20204;-70
2021/04/06 08:12:35;;;;;;;19.30;5.30;;;19.60;99.90;;;;;;5028771;28;20226;-67
2021/04/06 08:15:16;;;;;;;20.23;4.80;;;19.70;99.90;;;;;;5034842;27;20193;-67
2021/04/06 08:17:57;;;;;;;20.33;4.33;;;19.60;99.90;;;;;;5018133;28;20196;-67
2021/04/06 08:20:35;;;;;;;26.13;4.87;;;19.70;99.90;;;;;;5032778;27;20204;-67
2021/04/06 08:23:08;;;;;;;18.23;5.23;;;19.70;99.90;;;;;;5034626;27;20751;-67
2021/04/06 08:25:35;;;;;;;17.80;5.37;;;20.00;99.90;;;;;;5017494;28;20196;-67
2021/04/06 08:28:05;;;;;;;15.57;4.57;;;20.30;99.90;;;;;;5032128;27;20188;-67
2021/04/06 08:30:36;;;;;;;17.90;4.83;;;20.30;99.90;;;;;;5045229;27;20254;-67
2021/04/06 08:33:08;;;;;;;15.60;4.80;;;20.40;99.90;;;;;;5026013;27;20435;-67
2021/04/06 08:35:47;;;;;;;22.60;5.43;;;20.40;99.90;;;;;;5026787;27;20684;-66
2021/04/06 08:38:28;;;;;;;16.40;4.83;;;20.50;99.90;;;;;;5011287;27;20544;-69
2021/04/06 08:41:05;;;;;;;12.20;4.45;;;20.50;99.90;;;;;;5024380;27;20241;-69
2021/04/06 08:43:48;;;;;;;21.90;4.80;;;20.70;99.90;;;;;;5031225;27;20247;-68
2021/04/06 08:46:26;;;;;;;29.30;5.03;;;21.20;99.90;;;;;;5020247;27;20269;-68
2021/04/06 08:48:56;;;;;;;31.02;4.22;;;22.00;99.90;;;;;;5030755;27;20230;-69
2021/04/06 08:51:30;;;;;;;32.03;4.82;;;21.90;99.90;;;;;;5030711;27;20201;-68
2021/04/06 08:54:27;;;;;;;26.50;4.80;;;22.00;99.90;;;;;;5103275;27;20260;-69
2021/04/06 08:56:59;;;;;;;19.58;4.80;;;22.30;99.90;;;;;;5023597;27;20203;-68
2021/04/06 08:59:33;;;;;;;25.88;5.07;;;22.50;99.90;;;;;;5027156;27;20552;-68
2021/04/06 09:02:14;;;;;;;14.40;4.40;;;22.40;99.90;;;;;;5029598;27;20199;-69
2021/04/06 09:04:42;;;;;;;23.67;4.53;;;22.40;99.90;;;;;;5025327;27;20231;-69
2021/04/06 09:07:23;;;;;;;26.15;4.35;;;22.40;99.90;;;;;;5013416;27;20188;-69
2021/04/06 09:09:59;;;;;;;19.55;5.00;;;22.40;99.90;;;;;;5015178;28;20386;-68
2021/04/06 09:12:27;;;;;;;11.02;3.67;;;22.60;99.90;;;;;;5037514;27;20192;-68
2021/04/06 09:14:55;;;;;;;19.02;4.55;;;22.80;99.90;;;;;;5023611;27;20184;-69
2021/04/06 09:17:33;;;;;;;24.40;5.03;;;22.80;99.90;;;;;;5033035;27;20237;-68
2021/04/06 09:20:14;;;;;;;13.07;4.10;;;22.90;99.90;;;;;;5030282;27;20208;-69
2021/04/06 09:22:45;;;;;;;17.65;4.47;;;23.10;99.90;;;;;;5044179;27;20215;-68
2021/04/06 09:25:26;;;;;;;23.45;4.88;;;23.10;99.90;;;;;;5040812;27;20263;-68
2021/04/06 09:28:04;;;;;;;21.30;4.63;;;23.60;99.90;;;;;;5031703;27;20189;-69
2021/04/06 09:43:34;;;;;;;25.77;4.47;;;24.10;99.90;;;;;;5053773;27;20587;-67
2021/04/06 09:46:01;;;;;;;17.92;4.57;;;24.50;99.90;;;;;;5061930;28;20544;-65
2021/04/06 09:48:27;;;;;;;16.98;4.07;;;24.50;99.90;;;;;;5061201;28;20178;-66
2021/04/06 09:51:04;;;;;;;17.98;4.00;;;24.40;99.90;;;;;;5078756;28;21479;-66
2021/04/06 09:53:34;;;;;;;16.60;4.07;;;24.40;99.90;;;;;;5061402;28;20281;-66
2021/04/06 09:56:01;;;;;;;12.98;4.20;;;24.50;99.90;;;;;;5048419;28;20191;-68
2021/04/06 09:58:28;;;;;;;15.75;4.40;;;24.70;99.90;;;;;;5061907;28;20680;-66
2021/04/06 10:00:54;;;;;;;15.55;4.18;;;24.50;99.90;;;;;;5077197;28;20183;-68
2021/04/06 10:03:24;;;;;;;18.48;4.70;;;24.50;99.90;;;;;;5075837;28;20194;-67
2021/04/06 10:06:05;;;;;;;17.67;4.28;;;24.50;99.90;;;;;;5059908;28;20194;-64
2021/04/06 10:08:33;;;;;;;12.30;4.18;;;24.50;99.90;;;;;;5062922;28;20367;-67
2021/04/06 10:10:59;;;;;;;18.90;4.40;;;24.50;99.90;;;;;;5036368;28;20214;-68
2021/04/06 10:13:26;;;;;;;10.65;3.90;;;24.60;99.90;;;;;;5056744;28;20192;-66
2021/04/06 10:16:13;;;;;;;19.50;4.30;;;24.50;99.90;;;;;;5048613;28;20194;-67
2021/04/06 10:18:45;;;;;;;19.38;3.92;;;24.50;99.90;;;;;;5062246;28;20174;-64
2021/04/06 10:21:38;;;;;;;17.05;4.05;;;24.40;99.90;;;;;;5057777;28;20183;-69
2021/04/06 10:24:06;;;;;;;14.75;4.38;;;24.30;99.90;;;;;;5057164;28;20210;-69
2021/04/06 10:26:33;;;;;;;17.65;4.63;;;24.40;99.90;;;;;;5038484;28;20558;-67
2021/04/06 10:29:13;;;;;;;18.17;4.10;;;24.40;99.90;;;;;;5059190;28;20277;-67
2021/04/06 10:31:48;;;;;;;13.05;3.95;;;24.10;99.90;;;;;;5060762;28;20253;-67
2021/04/06 10:34:15;;;;;;;12.43;4.07;;;24.20;99.90;;;;;;5064168;28;20198;-66
2021/04/06 10:37:08;;;;;;;19.88;3.92;;;24.20;99.90;;;;;;5061729;28;20610;-67
2021/04/06 10:39:42;;;;;;;17.83;4.80;;;24.10;99.90;;;;;;5056168;28;20674;-68
2021/04/06 10:42:12;;;;;;;19.50;4.18;;;24.40;99.90;;;;;;5054101;28;20214;-65
2021/04/06 10:44:41;;;;;;;13.15;4.55;;;24.60;99.90;;;;;;5063015;28;20242;-66
2021/04/06 10:47:08;;;;;;;19.92;4.40;;;24.70;99.90;;;;;;5048735;28;20187;-66
2021/04/06 10:49:35;;;;;;;9.52;3.80;;;24.50;99.90;;;;;;5042365;28;20188;-65
2021/04/06 10:52:10;;;;;;;20.65;5.13;;;24.70;99.90;;;;;;5046170;28;20917;-70
2021/04/06 10:54:37;;;;;;;26.00;5.60;;;24.90;99.90;;;;;;5045953;28;20236;-70
2021/04/06 10:57:04;;;;;;;19.67;3.90;;;24.90;99.90;;;;;;5049077;28;20707;-65
2021/04/06 10:59:37;;;;;;;16.75;4.03;;;24.70;99.90;;;;;;5047897;28;20179;-65
2021/04/06 11:02:04;;;;;;;13.32;3.85;;;24.60;99.90;;;;;;5047708;28;20190;-68
2021/04/06 11:04:39;;;;;;;17.00;4.43;;;24.80;99.90;;;;;;5044864;28;20828;-66
2021/04/06 11:07:09;;;;;;;18.38;4.35;;;24.70;99.90;;;;;;5043253;28;20241;-66
2021/04/06 11:09:47;;;;;;;17.17;4.97;;;24.70;99.90;;;;;;5048606;28;20346;-67
2021/04/06 11:12:16;;;;;;;16.85;5.78;;;24.50;99.90;;;;;;5035280;28;20937;-67
2021/04/06 11:14:46;;;;;;;17.70;5.32;;;24.40;99.90;;;;;;5047658;28;20188;-66
2021/04/06 11:17:14;;;;;;;28.90;7.30;;;24.30;99.90;;;;;;5044229;28;20612;-67
2021/04/06 11:19:46;;;;;;;20.83;6.70;;;24.20;99.90;;;;;;5046568;28;20299;-67
2021/04/06 11:22:17;;;;;;;24.08;7.65;;;24.10;99.90;;;;;;5045121;28;20180;-70
2021/04/06 11:24:50;;;;;;;33.08;7.28;;;24.20;99.90;;;;;;5043458;28;20307;-68
2021/04/06 11:27:19;;;;;;;24.30;7.03;;;24.20;99.90;;;;;;5046906;28;20258;-66
2021/04/06 11:29:48;;;;;;;29.25;8.60;;;24.20;99.90;;;;;;5050313;28;20213;-68
2021/04/06 11:32:19;;;;;;;26.45;8.98;;;24.30;99.90;;;;;;5059280;28;20556;-68
2021/04/06 11:34:47;;;;;;;24.67;8.45;;;24.10;99.90;;;;;;5043017;28;20249;-66
2021/04/06 11:37:14;;;;;;;25.30;6.70;;;24.00;99.90;;;;;;5044623;28;20187;-66
2021/04/06 11:39:45;;;;;;;27.13;8.23;;;23.90;99.90;;;;;;5045950;28;20176;-67
2021/04/06 11:42:15;;;;;;;24.67;6.55;;;23.80;99.90;;;;;;5038007;28;20527;-69
2021/04/06 11:44:42;;;;;;;29.65;7.45;;;23.80;99.90;;;;;;5044099;28;20230;-67
2021/04/06 11:47:10;;;;;;;25.13;7.50;;;23.60;99.90;;;;;;5041767;28;20176;-68
2021/04/06 11:49:36;;;;;;;24.17;7.15;;;23.60;99.90;;;;;;5047873;28;20199;-66
2021/04/06 11:52:04;;;;;;;24.27;9.00;;;23.50;99.90;;;;;;5046738;28;20229;-66
2021/04/06 11:54:30;;;;;;;26.63;8.82;;;23.60;99.90;;;;;;5044279;28;20196;-68
2021/04/06 11:56:57;;;;;;;24.83;9.05;;;23.50;99.90;;;;;;5046050;28;20179;-67
2021/04/06 11:59:23;;;;;;;25.25;8.90;;;23.50;99.90;;;;;;5042244;28;20271;-66
2021/04/06 12:01:49;;;;;;;24.88;8.55;;;23.40;99.90;;;;;;5045499;28;20683;-67
2021/04/06 12:04:16;;;;;;;25.38;9.25;;;23.50;99.90;;;;;;5043421;28;20199;-65
2021/04/06 12:06:44;;;;;;;26.42;9.88;;;23.40;99.90;;;;;;5047208;28;20645;-66
2021/04/06 12:09:11;;;;;;;28.55;10.73;;;23.30;99.90;;;;;;5046631;28;20187;-64
2021/04/06 12:11:38;;;;;;;26.37;10.60;;;23.20;99.90;;;;;;5044522;28;20215;-65
2021/04/06 12:14:06;;;;;;;25.95;10.75;;;23.00;99.90;;;;;;5036478;28;20191;-67
2021/04/06 12:16:32;;;;;;;27.25;11.88;;;23.00;99.90;;;;;;5044285;28;20180;-65
2021/04/06 12:18:59;;;;;;;31.25;11.90;;;22.90;99.90;;;;;;5041077;28;20173;-67
2021/04/06 12:21:26;;;;;;;30.98;12.35;;;23.00;99.90;;;;;;5041663;28;20235;-66
2021/04/06 12:23:53;;;;;;;28.33;11.25;;;23.00;99.90;;;;;;5044227;28;20172;-65
2021/04/06 12:26:20;;;;;;;35.05;11.43;;;23.00;99.90;;;;;;5047539;28;20627;-66
2021/04/06 12:28:46;;;;;;;22.65;9.35;;;23.00;99.90;;;;;;5043456;28;20184;-67
2021/04/06 12:31:12;;;;;;;23.77;10.25;;;23.00;99.90;;;;;;5046080;28;20203;-67
2021/04/06 12:33:38;;;;;;;23.02;10.40;;;22.90;99.90;;;;;;5043353;28;20235;-65
2021/04/06 12:36:05;;;;;;;38.15;10.65;;;22.70;99.90;;;;;;5043616;28;20184;-66
2021/04/06 12:38:32;;;;;;;27.33;10.90;;;22.70;99.90;;;;;;5045468;28;20280;-66
2021/04/06 12:40:58;;;;;;;25.67;11.30;;;22.70;99.90;;;;;;5040017;28;20187;-67
2021/04/06 12:43:24;;;;;;;28.17;11.00;;;22.60;99.90;;;;;;5039101;28;20203;-67
2021/04/06 12:45:51;;;;;;;24.70;11.33;;;22.50;99.90;;;;;;5054179;28;20198;-64
2021/04/06 12:48:18;;;;;;;32.17;12.23;;;22.40;99.90;;;;;;5044531;28;20192;-67
2021/04/06 12:50:44;;;;;;;30.50;11.80;;;22.40;99.90;;;;;;5044090;28;20187;-65
2021/04/06 12:53:10;;;;;;;27.73;11.17;;;22.30;99.90;;;;;;5025262;28;20680;-67
2021/04/06 12:55:37;;;;;;;25.60;11.53;;;22.30;99.90;;;;;;5044168;28;20206;-69
2021/04/06 12:58:03;;;;;;;24.80;11.20;;;22.10;99.90;;;;;;5037879;28;20245;-68
2021/04/06 13:00:30;;;;;;;27.93;10.20;;;21.80;99.90;;;;;;5039692;28;22321;-66
2021/04/06 13:02:57;;;;;;;25.87;10.97;;;21.70;99.90;;;;;;5045329;28;20191;-65
2021/04/06 13:05:23;;;;;;;30.83;11.40;;;21.90;99.90;;;;;;5044733;28;20752;-65
2021/04/06 13:07:50;;;;;;;24.37;9.80;;;21.80;99.90;;;;;;5040974;28;20275;-67
2021/04/06 13:10:17;;;;;;;20.53;9.70;;;21.40;99.90;;;;;;5043475;28;20278;-66
2021/04/06 13:12:44;;;;;;;24.58;11.05;;;21.70;99.90;;;;;;5045509;28;20715;-68
2021/04/06 13:15:12;;;;;;;28.30;11.97;;;21.90;99.90;;;;;;5042827;28;20187;-65